Time;durP1;ratioP1;P1;durP2;ratioP2;P2;SDS_P1;SDS_P2;PMS_P1;PMS_P2;Temp;Humidity;BMP_temperature;BMP_pressure;BME280_temperature;BME280_humidity;BME280_pressure;Samples;Min_cycle;Max_cycle;Signal;HPM_P1;HPM_P2
2022/09/10 00:01:06;;;;;;;;;4.25;4.25;;;;;16.87;67.93;101085.34;4999190;28;45494;-81
2022/09/10 00:03:32;;;;;;;;;5.00;3.33;;;;;16.82;67.90;101079.28;4999539;28;47122;-81
2022/09/10 00:05:57;;;;;;;;;2.00;2.00;;;;;16.78;67.78;101069.59;4999094;28;45297;-81
2022/09/10 00:08:22;;;;;;;;;2.00;2.00;;;;;16.86;68.05;101086.25;4999176;28;45407;-81
2022/09/10 00:10:53;;;;;;;;;3.00;3.00;;;;;16.82;68.44;101082.78;5000177;28;45409;-81
2022/09/10 00:13:21;;;;;;;;;3.67;3.00;;;;;16.80;68.03;101084.63;5000173;28;45487;-81
2022/09/10 00:15:51;;;;;;;;;3.33;2.00;;;;;16.85;68.21;101089.81;4999877;28;45479;-81
2022/09/10 00:18:19;;;;;;;;;2.67;1.00;;;;;16.83;68.47;101089.84;4998914;28;45350;-81
2022/09/10 00:20:53;;;;;;;;;4.00;3.00;;;;;16.78;68.46;101086.44;4998819;28;45475;-81
2022/09/10 00:23:22;;;;;;;;;2.67;2.67;;;;;16.80;68.34;101089.94;4998612;28;47260;-80
2022/09/10 00:25:48;;;;;;;;;2.00;2.00;;;;;16.74;68.49;101076.75;4999981;28;45456;-80
2022/09/10 00:28:15;;;;;;;;;4.00;3.67;;;;;16.76;68.34;101088.25;4998762;28;45422;-81
2022/09/10 00:30:42;;;;;;;;;2.67;2.67;;;;;16.78;68.21;101081.09;4999549;28;45423;-82
2022/09/10 00:33:07;;;;;;;;;2.00;1.33;;;;;16.78;68.35;101078.44;5000106;28;45652;-81
2022/09/10 00:35:34;;;;;;;;;3.00;3.00;;;;;16.82;68.45;101081.94;4998653;28;45987;-81
2022/09/10 00:38:00;;;;;;;;;2.67;2.67;;;;;16.79;68.23;101079.34;5012016;28;45208;-80
2022/09/10 00:40:26;;;;;;;;;3.00;3.00;;;;;16.73;68.15;101077.66;5000103;28;46085;-81
2022/09/10 00:42:51;;;;;;;;;3.00;3.00;;;;;16.78;67.97;101078.44;5000263;28;45419;-81
2022/09/10 00:45:23;;;;;;;;;4.00;3.00;;;;;16.80;68.45;101087.28;4998841;28;45238;-82
2022/09/10 00:47:52;;;;;;;;;2.00;2.00;;;;;16.79;68.35;101063.41;5013412;28;45429;-81
2022/09/10 00:50:30;;;;;;;;;2.33;1.00;;;;;16.80;68.27;101078.44;5020923;28;45601;-82
2022/09/10 00:53:02;;;;;;;;;3.00;3.00;;;;;16.75;68.50;101079.38;5017957;28;45409;-81
2022/09/10 00:55:28;;;;;;;;;2.00;2.00;;;;;16.76;68.38;101057.19;5015012;28;45499;-81
2022/09/10 00:57:59;;;;;;;;;4.00;3.00;;;;;16.79;68.37;101071.38;5015653;28;45357;-81
2022/09/10 01:00:25;;;;;;;;;3.00;2.33;;;;;16.73;68.65;101064.34;4998311;28;45580;-81
2022/09/10 01:02:50;;;;;;;;;2.00;2.00;;;;;16.73;68.40;101067.00;4999516;28;45329;-81
2022/09/10 01:05:18;;;;;;;;;4.00;3.00;;;;;16.75;67.98;101067.84;4998228;28;45416;-81
2022/09/10 01:07:43;;;;;;;;;2.67;2.67;;;;;16.69;68.34;101060.91;4999120;28;45359;-81
2022/09/10 01:10:28;;;;;;;;;5.00;3.67;;;;;16.66;68.23;101062.78;5005222;28;45422;-81
2022/09/10 01:13:06;;;;;;;;;1.67;1.67;;;;;16.71;68.48;101066.19;5006047;28;47367;-82
2022/09/10 01:15:54;;;;;;;;;2.67;2.00;;;;;16.69;68.68;101068.88;5002485;28;45250;-81
2022/09/10 01:18:38;;;;;;;;;3.33;2.00;;;;;16.63;68.70;101061.06;5001663;28;45352;-82
2022/09/10 01:21:29;;;;;;;;;2.00;2.00;;;;;16.65;68.77;101058.34;5001732;28;45471;-81
2022/09/10 01:24:13;;;;;;;;;3.00;3.00;;;;;16.66;68.64;101071.63;5002708;28;45584;-81
2022/09/10 01:26:57;;;;;;;;;2.67;2.67;;;;;16.65;68.90;101074.31;5002721;28;45567;-81
2022/09/10 01:29:26;;;;;;;;;4.00;3.33;;;;;16.63;68.84;101062.84;5011273;28;45498;-81
2022/09/10 01:32:26;;;;;;;;;4.00;2.00;;;;;16.72;68.74;101079.44;5022143;28;45324;-81
2022/09/10 01:35:22;;;;;;;;;3.67;2.67;;;;;16.69;69.01;101074.19;5007938;28;47669;-81
2022/09/10 01:37:54;;;;;;;;;3.00;3.00;;;;;16.69;68.79;101073.34;5022782;28;45409;-81
2022/09/10 01:40:27;;;;;;;;;3.00;3.00;;;;;16.74;68.95;101084.72;5022603;28;45615;-81
2022/09/10 01:42:53;;;;;;;;;4.67;3.00;;;;;16.72;69.08;101084.75;5020869;28;45324;-81
2022/09/10 01:45:18;;;;;;;;;6.33;3.67;;;;;16.71;68.70;101074.19;5020574;28;47310;-80
2022/09/10 01:48:12;;;;;;;;;4.00;3.00;;;;;16.74;69.00;101082.06;5020839;28;45829;-81
2022/09/10 01:51:03;;;;;;;;;3.33;3.33;;;;;16.73;68.82;101083.88;5022510;28;45423;-82
2022/09/10 01:53:51;;;;;;;;;2.67;1.00;;;;;16.73;68.98;101091.84;5002487;28;45429;-81
2022/09/10 01:56:34;;;;;;;;;4.00;2.67;;;;;16.72;69.15;101087.41;5018088;28;46297;-80
2022/09/10 01:59:07;;;;;;;;;4.33;3.00;;;;;16.73;69.09;101089.19;5022281;28;45426;-81
2022/09/10 02:01:53;;;;;;;;;2.00;2.00;;;;;16.73;68.98;101088.28;5020715;28;45472;-81
2022/09/10 02:04:21;;;;;;;;;3.33;3.00;;;;;16.75;68.84;101078.50;5020425;28;45604;-81
2022/09/10 02:06:49;;;;;;;;;5.00;2.00;;;;;16.72;68.85;101074.13;5021980;28;45700;-81
2022/09/10 02:09:17;;;;;;;;;4.00;3.00;;;;;16.72;69.10;101076.78;5019600;28;45211;-81
2022/09/10 02:11:48;;;;;;;;;4.00;3.00;;;;;16.72;68.91;101082.09;5000811;28;45344;-80
2022/09/10 02:14:15;;;;;;;;;1.67;1.00;;;;;16.69;68.69;101084.84;5001798;28;45223;-81
2022/09/10 02:16:46;;;;;;;;;2.00;2.00;;;;;16.68;68.86;101072.47;5000288;28;47162;-81
2022/09/10 02:19:14;;;;;;;;;4.00;3.00;;;;;16.68;68.93;101075.13;5000447;28;45938;-81
2022/09/10 02:21:40;;;;;;;;;2.00;2.00;;;;;16.67;68.95;101075.16;5000039;28;45368;-81
2022/09/10 02:24:10;;;;;;;;;4.67;3.00;;;;;16.69;68.96;101089.28;5000139;28;45537;-81
2022/09/10 02:26:39;;;;;;;;;4.00;4.00;;;;;16.72;68.93;101084.75;5000586;28;47716;-81
2022/09/10 02:29:06;;;;;;;;;2.67;2.67;;;;;16.66;69.24;101073.41;5000327;28;45930;-81
2022/09/10 02:31:31;;;;;;;;;3.00;3.00;;;;;16.73;69.06;101081.22;5001681;28;45338;-81
2022/09/10 02:33:57;;;;;;;;;5.67;3.00;;;;;16.75;68.87;101091.78;4999954;28;46239;-81
2022/09/10 02:36:24;;;;;;;;;3.00;3.00;;;;;16.69;69.38;101074.19;5000232;28;47248;-82
2022/09/10 02:38:55;;;;;;;;;4.00;4.00;;;;;16.78;69.18;101089.09;5000125;28;45765;-81
2022/09/10 02:41:24;;;;;;;;;3.33;2.67;;;;;16.78;69.08;101085.56;5000465;28;45270;-81
2022/09/10 02:43:53;;;;;;;;;5.00;3.75;;;;;16.73;69.26;101081.22;5000241;28;45505;-81
2022/09/10 02:46:19;;;;;;;;;4.25;4.25;;;;;16.82;69.24;101098.75;5001655;28;46461;-81
2022/09/10 02:48:44;;;;;;;;;4.00;2.33;;;;;16.82;68.89;101088.13;5021418;28;45587;-82
2022/09/10 02:51:11;;;;;;;;;4.00;4.00;;;;;16.80;69.23;101071.31;5021474;28;45254;-81
2022/09/10 02:53:37;;;;;;;;;6.75;4.50;;;;;16.82;69.07;101084.59;5020049;28;45408;-81
2022/09/10 02:56:03;;;;;;;;;2.67;2.67;;;;;16.76;69.32;101061.66;5020899;28;45249;-81
2022/09/10 02:58:32;;;;;;;;;3.33;3.00;;;;;16.80;69.23;101073.09;5021154;28;45486;-82
2022/09/10 03:01:08;;;;;;;;;3.00;3.00;;;;;16.83;69.24;101083.66;5019503;28;45186;-81
2022/09/10 03:03:35;;;;;;;;;6.00;4.67;;;;;16.80;69.20;101070.44;5019840;28;45232;-81
2022/09/10 03:06:01;;;;;;;;;4.00;2.67;;;;;16.85;69.28;101079.19;5020917;28;45509;-81
2022/09/10 03:08:26;;;;;;;;;3.00;3.00;;;;;16.78;69.26;101064.28;5011754;28;45240;-82
2022/09/10 03:10:52;;;;;;;;;3.00;2.67;;;;;16.83;69.33;101081.00;5000104;28;45274;-81
2022/09/10 03:13:17;;;;;;;;;1.00;1.00;;;;;16.83;69.07;101086.31;4999957;28;45494;-84
2022/09/10 03:15:43;;;;;;;;;3.00;3.00;;;;;16.84;69.15;101090.72;5000941;28;45455;-81
2022/09/10 03:18:08;;;;;;;;;3.67;3.00;;;;;16.87;69.26;101098.66;5000277;28;45391;-81
2022/09/10 03:20:35;;;;;;;;;4.67;3.67;;;;;16.88;69.51;101087.97;5001223;28;45522;-81
2022/09/10 03:23:02;;;;;;;;;3.00;3.00;;;;;16.87;69.14;101088.88;5001246;28;45421;-81
2022/09/10 03:25:27;;;;;;;;;3.00;2.00;;;;;16.86;69.28;101084.44;5000814;28;45522;-81
2022/09/10 03:27:53;;;;;;;;;4.00;4.00;;;;;16.96;69.13;101091.31;4999615;28;45218;-81
2022/09/10 03:30:20;;;;;;;;;2.67;2.00;;;;;16.92;68.76;101086.09;4999527;28;45237;-81
2022/09/10 03:32:45;;;;;;;;;3.67;2.67;;;;;16.91;69.21;101079.91;5000993;28;45615;-81
2022/09/10 03:35:12;;;;;;;;;4.00;4.00;;;;;16.90;68.89;101078.16;5013873;28;45491;-81
2022/09/10 03:37:38;;;;;;;;;4.67;4.67;;;;;16.93;68.90;101079.88;4999628;28;45688;-81
2022/09/10 03:40:04;;;;;;;;;4.00;3.00;;;;;16.96;68.74;101085.97;5002131;28;45416;-80
2022/09/10 03:42:30;;;;;;;;;4.00;4.00;;;;;16.94;68.84;101082.47;5004612;28;45301;-81
2022/09/10 03:44:55;;;;;;;;;7.67;4.00;;;;;17.02;68.93;101094.72;5003291;28;45395;-80
2022/09/10 03:47:21;;;;;;;;;4.00;1.00;;;;;17.00;68.88;101080.59;5009543;28;45464;-81
2022/09/10 03:49:46;;;;;;;;;3.00;2.00;;;;;16.98;68.85;101086.81;5020791;28;45545;-81
2022/09/10 03:52:12;;;;;;;;;2.67;2.00;;;;;16.99;68.69;101079.72;5019224;28;45954;-81
2022/09/10 03:54:38;;;;;;;;;8.00;6.00;;;;;17.02;68.61;101092.94;5020020;28;45623;-81
2022/09/10 03:57:04;;;;;;;;;5.25;5.00;;;;;17.02;68.58;101095.59;5020450;28;45312;-81
2022/09/10 03:59:32;;;;;;;;;6.00;5.33;;;;;17.07;68.57;101091.03;5019185;28;45676;-80
2022/09/10 04:01:58;;;;;;;;;2.00;2.00;;;;;17.08;68.52;101089.25;5020015;28;45476;-81
2022/09/10 04:04:23;;;;;;;;;2.00;2.00;;;;;17.10;68.40;101092.75;5019929;28;46361;-81
2022/09/10 04:06:51;;;;;;;;;3.00;1.00;;;;;17.09;68.56;101104.31;5018873;28;45428;-81
2022/09/10 04:09:16;;;;;;;;;4.00;3.00;;;;;17.08;68.44;101094.56;5020362;28;45334;-81
2022/09/10 04:11:42;;;;;;;;;4.67;4.67;;;;;17.09;68.37;101089.22;5020018;28;45406;-81
2022/09/10 04:14:07;;;;;;;;;5.33;4.33;;;;;17.10;68.36;101100.72;5019879;28;45586;-81
2022/09/10 04:16:32;;;;;;;;;4.33;3.00;;;;;17.01;68.41;101091.19;5019845;28;45256;-81
2022/09/10 04:18:58;;;;;;;;;4.00;2.33;;;;;17.01;68.64;101077.91;5017217;28;45161;-81
2022/09/10 04:21:23;;;;;;;;;3.00;2.00;;;;;17.01;68.35;101093.84;5008361;28;45531;-81
2022/09/10 04:23:53;;;;;;;;;5.00;3.00;;;;;17.00;68.52;101091.22;5003811;28;45221;-81
2022/09/10 04:26:19;;;;;;;;;3.00;3.00;;;;;17.01;68.32;101085.00;5000040;28;45466;-81
2022/09/10 04:28:45;;;;;;;;;6.00;5.00;;;;;17.01;68.59;101088.53;5015255;28;45387;-81
2022/09/10 04:31:11;;;;;;;;;4.00;4.00;;;;;17.02;68.25;101089.41;5009752;28;45300;-81
2022/09/10 04:33:36;;;;;;;;;3.00;3.00;;;;;17.05;68.35;101099.97;4999881;28;46204;-80
2022/09/10 04:36:03;;;;;;;;;4.67;2.67;;;;;17.02;68.62;101087.63;5000013;28;45446;-81
2022/09/10 04:38:29;;;;;;;;;4.00;3.00;;;;;17.00;68.68;101086.81;4998421;28;45249;-81
2022/09/10 04:40:56;;;;;;;;;7.33;4.67;;;;;17.07;68.60;101099.00;4999761;28;45237;-81
2022/09/10 04:43:24;;;;;;;;;3.33;2.00;;;;;17.03;68.76;101093.84;4999666;28;46378;-81
2022/09/10 04:45:50;;;;;;;;;4.67;3.00;;;;;17.05;68.53;101100.84;4999604;28;45537;-81
2022/09/10 04:48:15;;;;;;;;;4.00;3.00;;;;;16.97;68.53;101087.75;5019226;28;45363;-81
2022/09/10 04:50:40;;;;;;;;;3.00;3.00;;;;;16.99;68.45;101095.69;5023439;28;45417;-81
2022/09/10 04:53:06;;;;;;;;;3.00;2.00;;;;;16.96;68.77;101085.97;5021392;28;46706;-81
2022/09/10 04:55:32;;;;;;;;;5.00;4.00;;;;;16.99;68.63;101095.69;5022878;28;45455;-81
2022/09/10 04:57:58;;;;;;;;;2.00;2.00;;;;;16.94;68.44;101090.47;5021656;28;45276;-80
2022/09/10 05:00:23;;;;;;;;;6.00;2.67;;;;;16.95;68.57;101099.34;5021427;28;45253;-81
2022/09/10 05:02:49;;;;;;;;;7.33;7.33;;;;;16.92;68.75;101094.97;5022767;28;46057;-81
2022/09/10 05:05:14;;;;;;;;;3.00;3.00;;;;;16.94;68.36;101106.41;5021689;28;45730;-81
2022/09/10 05:07:40;;;;;;;;;5.00;4.00;;;;;16.93;68.73;101114.44;5022878;28;45492;-81
2022/09/10 05:10:09;;;;;;;;;2.00;2.00;;;;;16.89;68.84;101108.34;5023030;28;45202;-81
2022/09/10 05:12:35;;;;;;;;;4.00;3.33;;;;;16.90;68.80;101111.88;5022644;28;45652;-80
2022/09/10 05:15:02;;;;;;;;;5.67;3.00;;;;;16.86;68.63;101112.84;5022583;28;45376;-81
2022/09/10 05:17:28;;;;;;;;;3.00;3.00;;;;;16.90;68.44;101127.81;5021475;28;45515;-81
2022/09/10 05:19:53;;;;;;;;;3.25;2.00;;;;;16.94;68.93;101132.16;5023064;28;45277;-81
2022/09/10 05:22:20;;;;;;;;;5.00;3.67;;;;;16.92;68.71;101131.31;5021503;28;46172;-80
2022/09/10 05:24:46;;;;;;;;;7.33;4.33;;;;;16.95;68.89;101131.25;5023052;28;45280;-81
2022/09/10 05:27:11;;;;;;;;;2.33;2.00;;;;;16.93;68.96;101130.41;5021839;28;45467;-81
2022/09/10 05:29:37;;;;;;;;;3.00;3.00;;;;;16.92;68.96;101126.88;5014194;28;45163;-80
2022/09/10 05:32:02;;;;;;;;;2.00;2.00;;;;;16.90;68.96;101135.81;5003019;28;45246;-81
2022/09/10 05:34:28;;;;;;;;;3.67;2.33;;;;;16.93;69.20;101133.06;5003117;28;45454;-81
2022/09/10 05:36:55;;;;;;;;;3.00;3.00;;;;;16.91;68.86;101132.22;5003320;28;45338;-81
2022/09/10 05:39:20;;;;;;;;;3.00;3.00;;;;;16.91;69.02;101138.41;5001460;28;45780;-81
2022/09/10 05:41:46;;;;;;;;;5.33;5.33;;;;;16.93;69.00;101136.59;5002462;28;45941;-81
2022/09/10 05:44:13;;;;;;;;;0.67;0.00;;;;;17.00;69.01;101152.41;5001232;28;45760;-81
2022/09/10 05:46:39;;;;;;;;;3.00;3.00;;;;;16.91;68.85;101141.06;5005535;28;45227;-81
2022/09/10 05:49:05;;;;;;;;;5.00;3.00;;;;;16.98;68.70;101158.66;5020882;28;45558;-81
2022/09/10 05:51:30;;;;;;;;;3.33;3.33;;;;;16.96;69.03;101152.47;5020821;28;47567;-81
2022/09/10 05:53:56;;;;;;;;;3.33;3.00;;;;;16.94;69.11;101145.44;5020483;28;45348;-81
2022/09/10 05:56:24;;;;;;;;;3.00;2.67;;;;;17.00;68.78;101158.63;5020168;28;45264;-81
2022/09/10 05:58:50;;;;;;;;;2.33;2.00;;;;;17.03;68.69;101160.34;5021409;28;45457;-81
2022/09/10 06:01:15;;;;;;;;;5.00;4.67;;;;;17.03;68.66;101163.88;5021586;28;45370;-81
2022/09/10 06:03:41;;;;;;;;;5.00;4.00;;;;;17.00;69.02;101150.66;5020708;28;45446;-82
2022/09/10 06:06:07;;;;;;;;;3.00;2.33;;;;;17.03;68.57;101161.22;5022096;28;45444;-82
2022/09/10 06:08:34;;;;;;;;;4.00;4.00;;;;;17.03;68.91;101163.88;5020695;28;45516;-81
2022/09/10 06:11:03;;;;;;;;;4.00;4.00;;;;;17.04;68.53;101165.59;5021406;28;45524;-82
2022/09/10 06:13:29;;;;;;;;;2.67;2.33;;;;;17.07;68.78;101170.84;5024266;28;46143;-81
2022/09/10 06:15:55;;;;;;;;;3.50;3.50;;;;;17.11;68.86;101177.00;5021476;28;45430;-81
2022/09/10 06:18:21;;;;;;;;;3.00;3.00;;;;;17.10;68.73;101170.75;5020446;28;45436;-81
2022/09/10 06:20:47;;;;;;;;;2.67;2.67;;;;;17.13;68.72;101173.38;5021503;28;45985;-81
2022/09/10 06:23:16;;;;;;;;;5.00;4.00;;;;;17.24;68.42;101182.88;5021806;28;45458;-81
2022/09/10 06:25:43;;;;;;;;;7.00;6.00;;;;;17.21;68.48;101181.16;5021556;28;45423;-81
2022/09/10 06:28:09;;;;;;;;;3.33;3.33;;;;;17.24;68.73;101180.19;5020164;28;45502;-82
2022/09/10 06:30:34;;;;;;;;;3.33;3.33;;;;;17.30;68.43;101185.41;5019527;28;47551;-82
2022/09/10 06:33:00;;;;;;;;;3.00;3.00;;;;;17.38;68.22;101192.28;5020186;28;45487;-81
2022/09/10 06:35:26;;;;;;;;;4.67;4.67;;;;;17.37;68.48;101186.97;5021536;28;45501;-82
2022/09/10 06:37:53;;;;;;;;;2.00;1.00;;;;;17.40;68.18;101186.91;5021558;28;45328;-82
2022/09/10 06:40:18;;;;;;;;;3.00;3.00;;;;;17.46;68.36;101197.41;5019874;28;46177;-81
2022/09/10 06:42:44;;;;;;;;;2.33;2.00;;;;;17.47;67.94;101199.16;5019739;28;45317;-82
2022/09/10 06:45:09;;;;;;;;;5.00;5.00;;;;;17.47;67.84;101199.16;5021039;28;45249;-81
2022/09/10 06:47:35;;;;;;;;;5.00;4.33;;;;;17.50;67.79;101203.53;5021088;28;45266;-81
2022/09/10 06:50:00;;;;;;;;;3.00;3.00;;;;;17.47;67.71;101196.47;5020949;28;46236;-81
2022/09/10 06:52:28;;;;;;;;;4.00;3.00;;;;;17.53;67.87;101201.66;5019824;28;46078;-81
2022/09/10 06:54:53;;;;;;;;;4.00;4.00;;;;;17.56;67.68;101206.03;5020714;28;45527;-82
2022/09/10 06:57:18;;;;;;;;;3.00;2.00;;;;;17.57;67.62;101206.00;5019346;28;45574;-81
2022/09/10 06:59:44;;;;;;;;;3.00;3.00;;;;;17.59;67.35;101216.63;5020617;28;45470;-81
2022/09/10 07:02:09;;;;;;;;;3.00;3.00;;;;;17.60;67.62;101210.38;5008276;28;45474;-81
2022/09/10 07:04:35;;;;;;;;;3.00;3.00;;;;;17.60;67.55;101203.25;4999525;28;45437;-81
2022/09/10 07:07:01;;;;;;;;;4.67;3.00;;;;;17.68;67.56;101215.50;5000838;28;45425;-81
2022/09/10 07:09:26;;;;;;;;;4.00;3.00;;;;;17.70;67.16;101219.00;4999832;28;45547;-82
2022/09/10 07:11:52;;;;;;;;;3.00;3.00;;;;;17.72;67.23;101225.16;5000270;28;45432;-81
2022/09/10 07:14:18;;;;;;;;;3.00;3.00;;;;;17.78;67.17;101225.00;4998811;28;45487;-81
2022/09/10 07:16:45;;;;;;;;;3.33;2.33;;;;;17.82;67.34;101226.69;4998843;28;45342;-82
2022/09/10 07:19:16;;;;;;;;;2.67;2.67;;;;;17.84;66.80;101225.75;5000281;28;46451;-81
2022/09/10 07:21:41;;;;;;;;;3.00;2.00;;;;;17.90;66.77;101231.84;5000448;28;45359;-81
2022/09/10 07:24:10;;;;;;;;;3.33;2.67;;;;;17.90;66.84;101226.50;5000330;28;45430;-81
2022/09/10 07:26:36;;;;;;;;;5.00;4.00;;;;;17.84;66.61;101222.22;4999189;28;45459;-82
2022/09/10 07:29:01;;;;;;;;;2.67;2.67;;;;;17.80;66.85;101224.09;4998623;28;45901;-81
2022/09/10 07:31:30;;;;;;;;;3.67;2.33;;;;;17.80;66.93;101231.19;5012577;28;45269;-81
2022/09/10 07:33:56;;;;;;;;;3.00;3.00;;;;;17.84;66.94;101232.88;5014506;28;45335;-81
2022/09/10 07:36:23;;;;;;;;;3.00;3.00;;;;;17.85;67.07;101235.50;5000400;28;45454;-81
2022/09/10 07:38:53;;;;;;;;;5.00;5.00;;;;;17.89;66.75;101238.94;4998889;28;47532;-81
2022/09/10 07:41:19;;;;;;;;;3.00;2.67;;;;;17.94;66.64;101238.84;5000467;28;45455;-81
2022/09/10 07:43:44;;;;;;;;;2.67;2.67;;;;;17.97;67.03;101241.41;4998982;28;45458;-81
2022/09/10 07:46:19;;;;;;;;;1.33;1.33;;;;;17.99;66.60;101244.91;5011219;28;45585;-81
2022/09/10 07:48:46;;;;;;;;;6.33;3.00;;;;;17.95;66.31;101230.78;5007336;28;46431;-81
2022/09/10 07:51:16;;;;;;;;;5.00;3.67;;;;;18.02;66.63;101244.84;5018206;28;45795;-82
2022/09/10 07:53:42;;;;;;;;;2.00;2.00;;;;;18.07;66.93;101254.47;5018449;28;45400;-82
2022/09/10 07:56:08;;;;;;;;;2.00;1.00;;;;;18.12;66.46;101254.31;5019727;28;45521;-81
2022/09/10 07:58:34;;;;;;;;;3.00;3.00;;;;;18.16;66.36;101247.13;5019546;28;46030;-81
2022/09/10 08:01:01;;;;;;;;;7.00;3.33;;;;;18.24;66.37;101258.44;5019338;28;45407;-81
2022/09/10 08:03:27;;;;;;;;;3.33;3.33;;;;;18.27;65.99;101264.56;5018381;28;45308;-81
2022/09/10 08:05:53;;;;;;;;;3.67;2.00;;;;;18.33;66.11;101263.53;5017489;28;45253;-82
2022/09/10 08:08:19;;;;;;;;;2.00;2.00;;;;;18.43;65.85;101269.47;4997937;28;47253;-82
2022/09/10 08:10:45;;;;;;;;;2.00;2.00;;;;;18.49;65.77;101254.16;4997737;28;45636;-82
2022/09/10 08:13:11;;;;;;;;;3.67;3.67;;;;;18.54;65.34;101270.06;4997957;28;45244;-81
2022/09/10 08:15:51;;;;;;;;;1.00;1.00;;;;;18.59;65.68;101281.47;4997527;28;45552;-81
2022/09/10 08:18:17;;;;;;;;;3.00;3.00;;;;;18.62;65.62;101270.69;4997605;28;47365;-81
2022/09/10 08:20:42;;;;;;;;;3.33;3.33;;;;;18.69;65.27;101272.28;4998063;28;45414;-81
2022/09/10 08:23:09;;;;;;;;;3.00;3.00;;;;;18.79;65.23;101272.03;4999614;28;46525;-81
2022/09/10 08:25:35;;;;;;;;;3.33;3.33;;;;;18.85;65.01;101280.75;4997948;28;45629;-82
2022/09/10 08:28:00;;;;;;;;;4.67;3.00;;;;;18.92;65.11;101278.75;4998884;28;45309;-81
2022/09/10 08:30:26;;;;;;;;;1.00;1.00;;;;;18.98;64.49;101277.69;4999003;28;45161;-81
2022/09/10 08:32:52;;;;;;;;;4.33;3.00;;;;;19.05;64.67;101285.47;4999701;28;45301;-80
2022/09/10 08:35:18;;;;;;;;;2.00;2.00;;;;;19.05;64.67;101282.81;4997905;28;45474;-81
2022/09/10 08:37:43;;;;;;;;;2.67;2.67;;;;;19.09;64.62;101284.47;4999222;28;45492;-81
2022/09/10 08:40:10;;;;;;;;;2.00;2.00;;;;;19.07;64.50;101282.78;4998966;28;45344;-81
2022/09/10 08:42:42;;;;;;;;;3.00;3.00;;;;;19.03;63.89;101291.78;4998385;28;45477;-81
2022/09/10 08:45:14;;;;;;;;;2.33;2.33;;;;;18.99;64.06;101303.47;4999720;28;45203;-81
2022/09/10 08:48:15;;;;;;;;;3.00;3.00;;;;;18.96;64.30;101293.78;5010160;28;47060;-82
2022/09/10 08:50:53;;;;;;;;;2.00;2.00;;;;;18.89;64.47;101298.41;5017388;28;45361;-81
2022/09/10 08:53:48;;;;;;;;;3.33;2.33;;;;;18.86;64.80;101301.16;5018906;28;45218;-81
2022/09/10 08:56:18;;;;;;;;;3.00;2.00;;;;;18.78;64.78;101296.97;5012881;28;45566;-83
2022/09/10 08:58:45;;;;;;;;;2.00;2.00;;;;;18.74;64.71;101306.84;5017149;28;46225;-80
2022/09/10 09:01:16;;;;;;;;;5.67;4.33;;;;;18.64;65.01;101306.22;5018128;28;45344;-80
2022/09/10 09:03:46;;;;;;;;;3.00;3.00;;;;;18.59;65.45;101309.94;5017263;28;45265;-79
2022/09/10 09:06:42;;;;;;;;;3.00;2.00;;;;;18.57;65.54;101311.75;5018177;28;45332;-80
2022/09/10 09:09:11;;;;;;;;;3.00;3.00;;;;;18.54;66.04;101307.38;5018213;28;45661;-80
2022/09/10 09:11:36;;;;;;;;;3.00;3.00;;;;;18.62;66.11;101309.84;5018524;28;45307;-80
2022/09/10 09:14:46;;;;;;;;;3.67;3.67;;;;;18.64;66.33;101316.88;5017068;28;45497;-80
2022/09/10 09:17:18;;;;;;;;;3.00;3.00;;;;;18.65;66.04;101318.63;5012070;28;45415;-80
2022/09/10 09:20:05;;;;;;;;;2.00;2.00;;;;;18.66;66.52;101316.84;5017929;28;45445;-81
2022/09/10 09:22:49;;;;;;;;;1.33;1.33;;;;;18.64;66.28;101324.00;5018383;28;45394;-80
2022/09/10 09:25:22;;;;;;;;;6.00;3.33;;;;;18.61;66.45;101326.78;5017027;28;45340;-80
2022/09/10 09:27:53;;;;;;;;;6.00;4.00;;;;;18.61;66.76;101316.97;5016629;28;45524;-81
2022/09/10 09:30:22;;;;;;;;;4.00;3.00;;;;;18.62;66.65;101336.50;5017607;28;46388;-80
2022/09/10 09:32:49;;;;;;;;;2.67;2.67;;;;;18.57;66.77;101323.28;5019520;28;45201;-81
2022/09/10 09:35:37;;;;;;;;;3.00;3.00;;;;;18.60;66.80;101338.34;5020210;28;45403;-80
2022/09/10 09:38:05;;;;;;;;;5.00;5.00;;;;;18.61;67.27;101335.63;5022065;28;45585;-80
2022/09/10 09:40:45;;;;;;;;;5.00;4.00;;;;;18.60;67.23;101333.00;5021271;28;46369;-79
2022/09/10 09:43:34;;;;;;;;;6.00;5.25;;;;;18.62;67.41;101336.50;5020015;28;45410;-80
2022/09/10 09:46:00;;;;;;;;;3.25;3.25;;;;;18.61;67.33;101338.31;5019970;28;45469;-80
2022/09/10 09:48:36;;;;;;;;;4.67;3.33;;;;;18.62;67.27;101337.38;5021352;28;45198;-80
2022/09/10 09:51:03;;;;;;;;;3.00;3.00;;;;;18.65;67.63;101341.75;5019854;28;46118;-82
2022/09/10 09:53:29;;;;;;;;;3.00;3.00;;;;;18.70;67.66;101346.03;5021220;28;45387;-82
2022/09/10 09:55:58;;;;;;;;;4.00;2.67;;;;;18.75;67.63;101353.09;5020736;28;45450;-82
2022/09/10 09:58:25;;;;;;;;;3.33;3.00;;;;;18.79;67.33;101349.41;5019606;28;45419;-81
2022/09/10 10:01:11;;;;;;;;;3.00;3.00;;;;;18.77;67.61;101354.78;5019588;28;47017;-82
2022/09/10 10:03:47;;;;;;;;;3.00;3.00;;;;;18.80;67.25;101357.38;5021306;28;45255;-82
2022/09/10 10:06:14;;;;;;;;;1.33;1.33;;;;;18.80;67.02;101359.16;5019902;28;45280;-82
2022/09/10 10:09:01;;;;;;;;;5.00;5.00;;;;;18.74;67.11;101352.19;5020993;28;45516;-80
2022/09/10 10:11:44;;;;;;;;;3.00;3.00;;;;;18.69;67.19;101352.31;5021167;28;45502;-80
2022/09/10 10:14:19;;;;;;;;;3.67;3.00;;;;;18.68;66.85;101358.56;5019102;28;45522;-80
2022/09/10 10:16:47;;;;;;;;;4.33;4.00;;;;;18.65;66.93;101355.97;5020890;28;45412;-81
2022/09/10 10:19:33;;;;;;;;;4.67;4.67;;;;;18.69;67.09;101368.31;5018911;28;45752;-82
2022/09/10 10:22:13;;;;;;;;;4.00;4.00;;;;;18.75;67.58;101361.97;5020992;28;45496;-82
2022/09/10 10:24:41;;;;;;;;;4.00;4.00;;;;;18.80;67.45;101359.16;5021262;28;45410;-83
2022/09/10 10:27:28;;;;;;;;;5.00;5.00;;;;;18.84;68.00;101359.03;5020073;28;45369;-82
2022/09/10 10:30:16;;;;;;;;;2.67;2.67;;;;;18.87;68.49;101355.38;5021144;28;45224;-82
2022/09/10 10:32:57;;;;;;;;;4.67;4.00;;;;;18.91;68.34;101357.94;5019655;28;48083;-82
2022/09/10 10:35:28;;;;;;;;;5.00;5.00;;;;;18.94;68.48;101356.97;5021004;28;45335;-83
2022/09/10 10:38:05;;;;;;;;;6.00;5.00;;;;;18.95;68.16;101361.38;5020762;28;45371;-82
2022/09/10 10:40:36;;;;;;;;;5.00;5.00;;;;;18.89;68.02;101356.22;5019195;28;46416;-82
2022/09/10 10:43:21;;;;;;;;;0.67;0.67;;;;;18.90;68.60;101356.19;5020055;28;45318;-80
2022/09/10 10:46:04;;;;;;;;;4.00;4.00;;;;;18.93;68.71;101352.56;5020640;28;45213;-82
2022/09/10 10:48:58;;;;;;;;;4.00;3.00;;;;;19.03;68.51;101355.81;5019332;28;45253;-82
2022/09/10 10:51:44;;;;;;;;;4.33;4.33;;;;;19.19;68.83;101357.13;5019485;28;45797;-82
2022/09/10 10:54:32;;;;;;;;;5.67;4.00;;;;;19.30;68.31;101340.78;5018644;28;47160;-82
2022/09/10 10:57:10;;;;;;;;;3.67;3.00;;;;;19.41;68.11;101344.03;5012091;28;45479;-82
2022/09/10 10:59:47;;;;;;;;;4.00;4.00;;;;;19.52;68.12;101347.22;5000689;28;45370;-82
2022/09/10 11:02:37;;;;;;;;;4.33;4.00;;;;;19.64;67.84;101345.09;4999111;28;45400;-83
2022/09/10 11:05:33;;;;;;;;;3.33;3.00;;;;;19.74;67.30;101350.13;5007684;28;46203;-82
2022/09/10 11:08:05;;;;;;;;;3.33;3.33;;;;;19.76;66.77;101350.94;5020492;28;45355;-82
2022/09/10 11:10:43;;;;;;;;;2.67;2.67;;;;;19.78;66.84;101343.78;5019569;28;45271;-80
2022/09/10 11:13:21;;;;;;;;;4.67;4.00;;;;;19.80;67.05;101349.91;5021159;28;45434;-81
2022/09/10 11:16:00;;;;;;;;;5.33;4.00;;;;;19.82;67.07;101345.41;5020511;28;45443;-81
2022/09/10 11:18:47;;;;;;;;;3.00;3.00;;;;;19.87;66.69;101339.91;5020095;28;45209;-81
2022/09/10 11:21:30;;;;;;;;;3.00;3.00;;;;;19.96;66.42;101341.41;5020233;28;45239;-81
2022/09/10 11:23:55;;;;;;;;;4.33;3.33;;;;;20.02;66.55;101342.09;5019785;28;45356;-81
2022/09/10 11:26:26;;;;;;;;;6.67;6.00;;;;;20.10;66.38;101343.59;5018796;28;47893;-81
2022/09/10 11:29:24;;;;;;;;;6.67;3.00;;;;;20.16;65.52;101338.94;5018896;28;45452;-81
2022/09/10 11:32:01;;;;;;;;;6.00;5.00;;;;;20.22;65.34;101335.19;5018540;28;45522;-81
2022/09/10 11:34:30;;;;;;;;;2.33;2.33;;;;;20.36;65.83;101332.88;4999873;28;45269;-82
2022/09/10 11:37:10;;;;;;;;;5.33;3.00;;;;;20.54;65.12;101333.22;4999695;28;45458;-81
2022/09/10 11:39:40;;;;;;;;;3.00;3.00;;;;;20.72;64.57;101329.88;4998359;28;45259;-81